Time;durP1;ratioP1;P1;durP2;ratioP2;P2;SDS_P1;SDS_P2;PMS_P1;PMS_P2;Temp;Humidity;BMP_temperature;BMP_pressure;BME280_temperature;BME280_humidity;BME280_pressure;Samples;Min_cycle;Max_cycle;Signal;HPM_P1;HPM_P2
2022/08/31 00:04:01;;;;;;;15.30;11.50;;;;;;;16.97;99.53;97454.60;110096;1247;72149;-66
2022/08/31 00:06:34;;;;;;;17.30;12.80;;;;;;;16.99;99.52;97453.72;110057;1248;69440;-67
2022/08/31 00:09:05;;;;;;;13.30;10.20;;;;;;;16.98;99.29;97451.67;110027;1250;69275;-67
2022/08/31 00:11:36;;;;;;;12.70;11.10;;;;;;;16.97;99.25;97448.77;110083;1247;60511;-67
2022/08/31 00:14:08;;;;;;;14.70;11.80;;;;;;;16.98;100.00;97447.48;110098;1248;60487;-67
2022/08/31 00:16:44;;;;;;;14.30;11.20;;;;;;;16.98;100.00;97446.95;110102;1248;71562;-67
2022/08/31 00:19:14;;;;;;;12.00;9.90;;;;;;;16.97;100.00;97438.56;110071;1247;68741;-67
2022/08/31 00:21:44;;;;;;;15.30;11.00;;;;;;;16.97;99.96;97435.42;110042;1247;68670;-67
2022/08/31 00:24:14;;;;;;;15.00;12.60;;;;;;;16.96;100.00;97432.02;110018;1250;60495;-68
2022/08/31 00:26:47;;;;;;;13.80;11.90;;;;;;;16.96;100.00;97430.37;110097;1248;60503;-66
2022/08/31 00:29:24;;;;;;;13.10;11.10;;;;;;;16.96;100.00;97434.45;110164;1247;72590;-67
2022/08/31 00:31:59;;;;;;;14.10;10.90;;;;;;;16.95;100.00;97432.06;109887;1251;68553;-66
2022/08/31 00:34:28;;;;;;;;;;;;;;;16.94;99.89;97430.01;110053;1250;68632;-66
2022/08/31 00:36:59;;;;;;;12.80;10.20;;;;;;;16.94;100.00;97433.10;110023;1249;61376;-66
2022/08/31 00:39:29;;;;;;;13.80;11.30;;;;;;;16.93;100.00;97429.80;110109;1248;60569;-66
2022/08/31 00:42:00;;;;;;;13.90;11.00;;;;;;;16.94;100.00;97430.63;110046;1248;71469;-66
2022/08/31 00:44:30;;;;;;;14.80;11.60;;;;;;;16.93;100.00;97429.64;110040;1250;69516;-66
2022/08/31 00:47:00;;;;;;;14.20;11.30;;;;;;;16.92;100.00;97434.18;109995;1249;69382;-66
2022/08/31 00:49:33;;;;;;;11.90;10.20;;;;;;;16.88;99.97;97435.04;110021;1248;60502;-66
2022/08/31 00:52:17;;;;;;;12.80;11.40;;;;;;;16.87;99.88;97436.73;109688;1250;60564;-66
2022/08/31 00:54:55;;;;;;;13.60;11.40;;;;;;;16.86;100.00;97433.35;109727;1250;72404;-67
2022/08/31 00:57:30;;;;;;;13.30;11.00;;;;;;;16.84;100.00;97431.06;109876;1249;69411;-67
2022/08/31 01:00:08;;;;;;;13.20;11.80;;;;;;;16.83;99.97;97427.16;110049;1250;68575;-66
2022/08/31 01:02:38;;;;;;;14.20;11.10;;;;;;;16.83;100.00;97431.55;110036;1250;60529;-66
2022/08/31 01:05:10;;;;;;;14.30;11.10;;;;;;;16.82;99.91;97427.05;109843;1250;60486;-66
2022/08/31 01:07:43;;;;;;;12.70;10.30;;;;;;;16.83;100.00;97429.08;109738;1250;72274;-66
2022/08/31 01:10:16;;;;;;;11.00;8.80;;;;;;;16.83;99.57;97432.97;110083;1247;69306;-66
2022/08/31 01:12:50;;;;;;;12.30;9.90;;;;;;;16.82;100.00;97432.69;110007;1247;68713;-66
2022/08/31 01:15:21;;;;;;;10.40;9.20;;;;;;;16.80;99.63;97434.20;110020;1247;60487;-66
2022/08/31 01:17:54;;;;;;;12.30;9.80;;;;;;;16.79;99.09;97434.33;109685;1250;60515;-66
2022/08/31 01:20:45;;;;;;;13.30;11.00;;;;;;;16.79;99.77;97434.33;109755;1251;72312;-66
2022/08/31 01:23:17;;;;;;;11.20;9.80;;;;;;;16.77;99.97;97431.69;110091;1249;69464;-66
2022/08/31 01:25:50;;;;;;;10.70;9.60;;;;;;;16.76;98.29;97430.95;110036;1247;68610;-66
2022/08/31 01:28:22;;;;;;;13.20;11.50;;;;;;;16.73;99.40;97432.45;110003;1247;60557;-66
2022/08/31 01:31:00;;;;;;;13.80;11.80;;;;;;;16.72;99.60;97434.52;110016;1250;60427;-66
2022/08/31 01:33:33;;;;;;;13.20;10.70;;;;;;;16.71;100.00;97430.70;110038;1250;71544;-66
2022/08/31 01:36:08;;;;;;;13.00;11.10;;;;;;;16.71;100.00;97430.33;110023;1250;69491;-66
2022/08/31 01:38:46;;;;;;;13.10;10.10;;;;;;;16.73;100.00;97430.55;109884;1250;69553;-66
2022/08/31 01:41:22;;;;;;;13.70;10.60;;;;;;;16.72;99.74;97424.24;110075;1247;60487;-66
2022/08/31 01:43:53;;;;;;;12.00;10.30;;;;;;;16.72;100.00;97425.66;110136;1247;60490;-66
2022/08/31 01:46:24;;;;;;;14.10;11.70;;;;;;;16.74;100.00;97427.31;109986;1249;72279;-65
2022/08/31 01:48:55;;;;;;;12.30;9.80;;;;;;;16.73;100.00;97420.85;109733;1248;69445;-64
2022/08/31 01:51:26;;;;;;;13.50;10.40;;;;;;;16.73;100.00;97422.27;110013;1250;69544;-65
2022/08/31 01:53:59;;;;;;;14.40;11.50;;;;;;;16.72;99.96;97418.63;109692;1250;60580;-67
2022/08/31 01:56:36;;;;;;;14.70;10.90;;;;;;;16.72;99.87;97420.02;110017;1250;60574;-68
2022/08/31 01:59:10;;;;;;;11.20;10.00;;;;;;;16.72;99.88;97417.55;109681;1250;71551;-67
2022/08/31 02:02:13;;;;;;;14.20;11.10;;;;;;;16.74;99.57;97414.77;109970;1250;67609;-67
2022/08/31 02:04:43;;;;;;;15.10;11.80;;;;;;;16.74;100.00;97416.16;109908;1251;68513;-66
2022/08/31 02:07:13;;;;;;;12.90;10.20;;;;;;;16.73;99.63;97414.53;109728;1250;60618;-66
2022/08/31 02:09:43;;;;;;;16.30;13.00;;;;;;;16.73;99.59;97411.69;110036;1250;60480;-66
2022/08/31 02:12:13;;;;;;;15.50;13.00;;;;;;;16.72;100.00;97412.63;110001;1250;71672;-66
2022/08/31 02:14:42;;;;;;;;;;;;;;;16.71;100.00;97408.48;109728;1250;68553;-66
2022/08/31 02:17:13;;;;;;;13.80;11.00;;;;;;;16.72;100.00;97412.16;109617;1250;69487;-66
2022/08/31 02:19:43;;;;;;;12.70;10.10;;;;;;;16.72;100.00;97407.88;109665;1250;60530;-66
2022/08/31 02:22:16;;;;;;;13.00;11.30;;;;;;;16.73;100.00;97405.37;109592;1253;60563;-66
2022/08/31 02:24:49;;;;;;;11.50;9.90;;;;;;;16.73;100.00;97402.86;109735;1250;72643;-65
2022/08/31 02:27:20;;;;;;;10.30;8.80;;;;;;;16.74;100.00;97407.08;110094;1250;69309;-66
2022/08/31 02:29:51;;;;;;;14.30;11.80;;;;;;;16.73;100.00;97403.94;109716;1247;69269;-67
2022/08/31 02:32:22;;;;;;;14.40;11.60;;;;;;;16.72;100.00;97405.63;110120;1248;60631;-66
2022/08/31 02:34:54;;;;;;;11.60;9.80;;;;;;;16.70;100.00;97406.02;110088;1247;60521;-66
2022/08/31 02:37:25;;;;;;;14.60;10.90;;;;;;;16.68;98.94;97403.37;109771;1250;72354;-66
2022/08/31 02:39:57;;;;;;;12.20;9.80;;;;;;;16.68;98.52;97404.48;109904;1251;68713;-66
2022/08/31 02:42:29;;;;;;;14.60;11.80;;;;;;;16.65;98.04;97410.70;109870;1250;69489;-67
2022/08/31 02:45:19;;;;;;;14.90;12.00;;;;;;;16.62;97.37;97410.81;110030;1247;60496;-66
2022/08/31 02:47:48;;;;;;;13.90;11.10;;;;;;;16.60;97.58;97409.64;109790;1250;60606;-67
2022/08/31 02:50:44;;;;;;;15.00;12.50;;;;;;;16.59;99.59;97410.41;109998;1250;71557;-66
2022/08/31 02:53:18;;;;;;;9.60;8.40;;;;;;;16.57;99.94;97407.05;110082;1250;69483;-66
2022/08/31 02:55:49;;;;;;;11.60;9.50;;;;;;;16.56;98.12;97404.89;109830;1250;69094;-65
2022/08/31 02:58:19;;;;;;;14.00;11.30;;;;;;;16.56;98.98;97399.64;109818;1251;60512;-66
2022/08/31 03:00:53;;;;;;;15.10;13.50;;;;;;;16.56;100.00;97399.98;109792;1251;60509;-67
2022/08/31 03:03:24;;;;;;;12.30;10.90;;;;;;;16.55;100.00;97401.98;109728;1248;72332;-67
2022/08/31 03:05:54;;;;;;;13.70;11.20;;;;;;;16.55;100.00;97403.40;110215;1248;69419;-66
2022/08/31 03:08:24;;;;;;;12.90;10.70;;;;;;;16.54;100.00;97406.11;110081;1247;69823;-68
2022/08/31 03:10:55;;;;;;;13.30;11.00;;;;;;;16.54;100.00;97403.44;110085;1248;60577;-67
2022/08/31 03:13:25;;;;;;;12.80;9.10;;;;;;;16.54;100.00;97403.80;109544;1252;60524;-67
2022/08/31 03:15:56;;;;;;;11.70;9.50;;;;;;;16.54;100.00;97399.41;110007;1250;71636;-66
2022/08/31 03:18:27;;;;;;;11.50;9.00;;;;;;;16.54;100.00;97397.31;109748;1250;69390;-66
2022/08/31 03:20:56;;;;;;;;;;;;;;;16.54;100.00;97398.70;109666;1251;68432;-66
2022/08/31 03:23:26;;;;;;;;;;;;;;;16.53;100.00;97399.52;110032;1250;60506;-66
2022/08/31 03:25:57;;;;;;;10.40;8.20;;;;;;;16.52;100.00;97401.02;109999;1248;60523;-66
2022/08/31 03:28:26;;;;;;;13.00;9.80;;;;;;;16.52;100.00;97399.47;110031;1251;73005;-67
2022/08/31 03:31:11;;;;;;;12.60;9.80;;;;;;;16.50;100.00;97401.23;109755;1251;67546;-67
2022/08/31 03:33:41;;;;;;;10.80;9.30;;;;;;;16.50;100.00;97402.29;109584;1250;69406;-67
2022/08/31 03:36:14;;;;;;;;;;;;;;;16.49;100.00;97404.17;109731;1250;60542;-67
2022/08/31 03:38:44;;;;;;;12.00;10.10;;;;;;;16.47;100.00;97403.96;109895;1252;60487;-67
2022/08/31 03:41:17;;;;;;;15.30;11.30;;;;;;;16.46;100.00;97403.27;109766;1250;71391;-67
2022/08/31 03:43:48;;;;;;;13.40;9.00;;;;;;;16.46;100.00;97406.79;109712;1253;69244;-67
2022/08/31 03:46:19;;;;;;;12.10;9.70;;;;;;;16.46;100.00;97409.42;109994;1249;67477;-68
2022/08/31 03:48:49;;;;;;;12.50;9.30;;;;;;;16.45;100.00;97410.33;109620;1251;60529;-66
2022/08/31 03:51:19;;;;;;;12.40;10.00;;;;;;;16.44;100.00;97412.20;109645;1251;60502;-67
2022/08/31 03:53:49;;;;;;;14.10;9.80;;;;;;;16.43;100.00;97408.41;109657;1251;72270;-66
2022/08/31 03:56:20;;;;;;;10.80;9.30;;;;;;;16.43;100.00;97410.02;109576;1252;69646;-66
2022/08/31 03:58:50;;;;;;;13.30;10.90;;;;;;;16.44;100.00;97412.77;109776;1251;68914;-65
2022/08/31 04:01:57;;;;;;;11.00;9.50;;;;;;;16.43;100.00;97410.38;110066;1250;60535;-66
2022/08/31 04:04:50;;;;;;;11.90;10.60;;;;;;;16.43;100.00;97411.05;110111;1247;60493;-67
2022/08/31 04:07:38;;;;;;;13.20;11.30;;;;;;;16.43;100.00;97410.55;109877;1250;72159;-67
2022/08/31 04:10:41;;;;;;;11.00;9.60;;;;;;;16.43;100.00;97417.05;109856;1250;69363;-67
2022/08/31 04:13:45;;;;;;;12.70;11.40;;;;;;;16.43;100.00;97412.16;110024;1247;68649;-68
2022/08/31 04:16:37;;;;;;;15.50;12.30;;;;;;;16.44;100.00;97414.52;109756;1248;60550;-66
2022/08/31 04:19:07;;;;;;;13.50;10.50;;;;;;;16.44;100.00;97410.10;109817;1250;60502;-66
2022/08/31 04:21:42;;;;;;;11.80;9.20;;;;;;;16.47;100.00;97411.71;110052;1249;71517;-66
2022/08/31 04:24:12;;;;;;;14.20;9.90;;;;;;;16.50;100.00;97417.91;109770;1248;68656;-67
2022/08/31 04:26:42;;;;;;;11.40;10.20;;;;;;;16.53;99.13;97415.84;109899;1251;68255;-68
2022/08/31 04:29:12;;;;;;;13.80;11.30;;;;;;;16.56;97.43;97416.53;109750;1248;60545;-66
2022/08/31 04:31:43;;;;;;;13.20;11.00;;;;;;;16.56;97.57;97414.20;109724;1250;60549;-66
2022/08/31 04:34:12;;;;;;;10.20;9.10;;;;;;;16.57;97.48;97412.39;109796;1250;71711;-67
2022/08/31 04:36:44;;;;;;;;;;;;;;;16.59;96.62;97410.56;110097;1248;69504;-65
2022/08/31 04:39:13;;;;;;;13.40;9.90;;;;;;;16.62;97.89;97411.21;109823;1250;69625;-65
2022/08/31 04:41:44;;;;;;;12.00;9.70;;;;;;;16.64;98.60;97408.86;109600;1251;60548;-66
2022/08/31 04:44:14;;;;;;;11.10;9.80;;;;;;;16.69;97.19;97414.74;109755;1250;60557;-66
2022/08/31 04:46:48;;;;;;;12.50;10.00;;;;;;;16.72;97.99;97422.52;109781;1251;72363;-66
2022/08/31 04:49:17;;;;;;;12.90;10.70;;;;;;;16.75;99.22;97421.68;109945;1250;68748;-66
2022/08/31 04:51:46;;;;;;;13.70;11.30;;;;;;;16.80;99.66;97418.75;110093;1250;69442;-66
2022/08/31 04:54:15;;;;;;;14.90;10.90;;;;;;;16.84;100.00;97418.52;108748;1251;1769665;-66
2022/08/31 04:56:45;;;;;;;13.50;11.30;;;;;;;16.88;100.00;97413.95;109787;1251;60499;-66
2022/08/31 04:59:25;;;;;;;11.40;10.20;;;;;;;16.92;100.00;97415.84;110046;1250;71496;-68
2022/08/31 05:02:18;;;;;;;12.50;10.30;;;;;;;16.97;100.00;97409.58;109948;1251;68626;-66
2022/08/31 05:04:53;;;;;;;18.80;12.30;;;;;;;17.03;100.00;97411.56;110005;1248;68711;-66
2022/08/31 05:07:23;;;;;;;12.30;10.20;;;;;;;17.06;100.00;97409.38;109629;1251;60573;-67
2022/08/31 05:09:54;;;;;;;14.00;11.40;;;;;;;17.11;100.00;97413.25;109939;1250;60548;-67
2022/08/31 05:12:23;;;;;;;11.60;10.10;;;;;;;17.15;100.00;97413.59;109933;1250;72962;-67
2022/08/31 05:14:52;;;;;;;10.60;8.70;;;;;;;17.19;100.00;97415.43;110038;1250;68700;-67
2022/08/31 05:17:23;;;;;;;12.70;9.90;;;;;;;17.25;99.96;97413.90;109952;1251;69477;-66
2022/08/31 05:19:52;;;;;;;14.40;10.70;;;;;;;17.30;99.51;97416.21;109760;1250;60594;-67
2022/08/31 05:22:21;;;;;;;13.20;10.80;;;;;;;17.37;98.80;97417.36;109877;1251;60562;-67
2022/08/31 05:24:52;;;;;;;13.20;11.80;;;;;;;17.40;97.98;97423.72;109683;1250;73026;-66
2022/08/31 05:27:21;;;;;;;13.00;10.80;;;;;;;17.41;97.10;97423.42;109953;1249;69344;-66
2022/08/31 05:29:50;;;;;;;9.70;8.40;;;;;;;17.43;96.59;97419.62;109636;1251;67801;-65
2022/08/31 05:32:37;;;;;;;11.80;10.40;;;;;;;17.45;96.14;97417.94;109775;1251;60567;-68
2022/08/31 05:35:07;;;;;;;9.60;8.60;;;;;;;17.49;96.48;97418.73;109926;1251;60472;-66
2022/08/31 05:37:36;;;;;;;9.50;8.50;;;;;;;17.54;96.55;97420.33;109948;1250;71552;-66
2022/08/31 05:40:07;;;;;;;12.40;9.90;;;;;;;17.59;96.07;97419.23;109709;1251;68444;-65
2022/08/31 05:42:36;;;;;;;10.20;9.00;;;;;;;17.63;96.06;97418.98;109549;1253;69531;-66
2022/08/31 05:45:05;;;;;;;11.60;10.30;;;;;;;17.68;95.20;97420.02;110015;1250;60569;-66
2022/08/31 05:47:35;;;;;;;13.00;10.30;;;;;;;17.73;94.92;97421.81;110000;1249;60509;-66
2022/08/31 05:50:05;;;;;;;12.70;9.60;;;;;;;17.77;94.77;97425.11;109973;1250;72920;-66
2022/08/31 05:52:37;;;;;;;13.20;11.40;;;;;;;17.79;94.38;97425.41;109759;1251;69380;-66
2022/08/31 05:55:06;;;;;;;13.70;12.00;;;;;;;17.80;94.09;97422.34;109674;1251;70362;-66
2022/08/31 05:57:35;;;;;;;10.40;9.00;;;;;;;17.81;94.31;97416.77;109710;1251;60530;-66
2022/08/31 06:00:09;;;;;;;14.70;11.10;;;;;;;17.85;93.87;97411.59;109854;1250;60573;-66
2022/08/31 06:02:43;;;;;;;13.30;11.90;;;;;;;17.88;93.91;97409.55;109947;1251;72311;-66
2022/08/31 06:05:13;;;;;;;11.80;9.60;;;;;;;17.88;93.98;97407.59;109607;1251;69463;-67
2022/08/31 06:07:47;;;;;;;11.30;9.60;;;;;;;17.92;94.16;97405.12;109605;1251;70314;-67
2022/08/31 06:10:18;;;;;;;10.50;8.40;;;;;;;18.00;93.72;97405.67;109749;1250;60573;-67
2022/08/31 06:12:47;;;;;;;10.30;9.20;;;;;;;18.09;93.26;97409.30;109836;1250;60503;-66
2022/08/31 06:15:18;;;;;;;11.40;9.30;;;;;;;18.16;92.85;97414.60;110029;1250;72386;-67
2022/08/31 06:17:47;;;;;;;9.00;7.50;;;;;;;18.21;91.75;97416.65;109785;1250;69214;-67
2022/08/31 06:20:16;;;;;;;9.90;8.00;;;;;;;18.30;91.62;97415.60;109831;1248;68862;-66
2022/08/31 06:22:48;;;;;;;8.20;7.30;;;;;;;18.42;91.92;97418.98;109940;1249;60572;-67
2022/08/31 06:25:28;;;;;;;8.30;7.40;;;;;;;18.53;91.87;97418.30;109664;1251;60531;-67
2022/08/31 06:27:58;;;;;;;9.80;8.80;;;;;;;18.62;91.42;97415.47;109741;1251;72316;-67
2022/08/31 06:30:27;;;;;;;9.30;7.50;;;;;;;18.69;91.10;97414.16;109760;1251;69515;-67
2022/08/31 06:32:56;;;;;;;9.20;8.00;;;;;;;18.75;90.64;97421.80;109724;1251;69561;-68
2022/08/31 06:35:39;;;;;;;9.20;8.10;;;;;;;18.82;90.00;97426.33;109916;1250;60570;-72
2022/08/31 06:38:26;;;;;;;9.50;8.50;;;;;;;18.86;88.58;97425.77;110198;1250;60588;-67
2022/08/31 06:41:29;;;;;;;10.80;9.70;;;;;;;18.92;88.12;97425.88;109852;1249;72941;-66
2022/08/31 06:44:29;;;;;;;9.60;8.50;;;;;;;18.96;86.94;97428.95;110118;1249;68751;-66
2022/08/31 06:47:09;;;;;;;7.80;7.00;;;;;;;19.03;87.75;97431.91;110031;1250;69871;-65
2022/08/31 06:49:40;;;;;;;6.80;6.10;;;;;;;19.10;87.47;97433.25;109994;1250;60578;-66
2022/08/31 06:52:09;;;;;;;8.40;7.10;;;;;;;19.14;86.67;97434.26;109576;1251;60539;-66
2022/08/31 06:54:41;;;;;;;7.70;6.80;;;;;;;19.16;85.97;97430.63;109668;1250;71615;-66
2022/08/31 06:57:48;;;;;;;8.10;6.80;;;;;;;19.22;85.06;97431.66;109510;1254;69494;-66
2022/08/31 07:00:35;;;;;;;9.20;8.20;;;;;;;19.29;85.28;97428.58;109556;1254;67477;-65
2022/08/31 07:03:32;;;;;;;12.70;8.90;;;;;;;19.31;85.45;97430.27;109947;1250;60596;-66
2022/08/31 07:06:14;;;;;;;9.70;8.70;;;;;;;19.33;85.66;97433.29;109879;1248;60495;-67
2022/08/31 07:08:46;;;;;;;9.50;7.70;;;;;;;19.38;85.57;97431.70;110103;1248;72966;-68
2022/08/31 07:11:24;;;;;;;7.90;7.10;;;;;;;19.52;85.27;97435.41;109852;1251;69420;-66
2022/08/31 07:13:56;;;;;;;8.00;6.50;;;;;;;19.70;83.61;97435.77;110052;1250;69690;-67
2022/08/31 07:16:27;;;;;;;7.80;7.00;;;;;;;19.89;83.43;97440.61;110008;1250;60844;-68
2022/08/31 07:19:02;;;;;;;8.80;7.40;;;;;;;20.05;80.87;97444.49;110314;1251;60614;-66
2022/08/31 07:21:40;;;;;;;7.80;6.30;;;;;;;20.15;79.17;97445.02;109690;1251;72994;-68
2022/08/31 07:24:12;;;;;;;6.80;6.10;;;;;;;20.46;78.98;97438.81;109958;1250;69496;-66
2022/08/31 07:26:45;;;;;;;6.70;6.10;;;;;;;20.87;79.15;97439.00;109741;1251;69462;-66
2022/08/31 07:29:19;;;;;;;7.80;7.10;;;;;;;21.47;78.85;97436.08;109840;1250;60508;-66
2022/08/31 07:31:49;;;;;;;8.80;7.90;;;;;;;21.91;74.61;97436.38;109850;1247;60509;-67
2022/08/31 07:34:27;;;;;;;10.20;7.10;;;;;;;22.20;71.52;97437.00;109915;1247;72904;-67
2022/08/31 07:42:49;;;;;;;7.60;5.60;;;;;;;23.75;69.58;97432.39;110018;1250;60584;-67
2022/08/31 07:45:20;;;;;;;6.30;5.70;;;;;;;24.25;67.46;97431.29;110034;1250;60509;-68
2022/08/31 07:47:54;;;;;;;8.90;5.90;;;;;;;24.61;63.76;97431.65;109834;1251;72473;-67
2022/08/31 07:50:29;;;;;;;6.40;5.80;;;;;;;24.72;62.45;97430.61;109733;1251;69864;-66
2022/08/31 07:53:19;;;;;;;6.30;4.90;;;;;;;24.83;61.76;97430.39;109902;1248;69561;-67
2022/08/31 07:56:01;;;;;;;6.40;5.20;;;;;;;24.94;60.74;97427.91;109983;1250;60491;-67
2022/08/31 07:58:46;;;;;;;5.30;4.20;;;;;;;25.26;62.63;97428.09;109689;1251;60498;-67
2022/08/31 08:01:16;;;;;;;5.70;5.10;;;;;;;25.65;60.73;97428.52;109800;1251;72761;-68
2022/08/31 08:03:46;;;;;;;7.60;5.10;;;;;;;26.14;61.06;97430.81;109962;1250;69535;-68
2022/08/31 08:06:34;;;;;;;6.20;5.60;;;;;;;26.60;59.13;97431.58;109895;1248;69213;-68
2022/08/31 08:09:34;;;;;;;6.10;5.40;;;;;;;26.65;56.72;97432.41;109972;1248;60550;-67
2022/08/31 08:12:09;;;;;;;5.20;4.70;;;;;;;26.82;55.86;97431.68;110048;1249;60551;-68
2022/08/31 08:14:44;;;;;;;5.70;5.20;;;;;;;26.77;54.71;97430.76;109977;1250;71916;-68
2022/08/31 08:17:39;;;;;;;6.60;6.00;;;;;;;27.31;53.66;97425.83;109852;1250;69609;-68
2022/08/31 08:20:09;;;;;;;5.40;4.90;;;;;;;27.27;53.36;97420.79;110012;1250;70024;-69
2022/08/31 08:22:43;;;;;;;5.40;4.80;;;;;;;27.32;52.76;97420.59;110371;1251;60959;-68
2022/08/31 08:25:34;;;;;;;5.30;4.80;;;;;;;27.23;52.46;97426.45;110028;1247;60496;-68
2022/08/31 08:28:16;;;;;;;6.20;5.60;;;;;;;27.27;52.29;97421.86;110032;1247;70919;-67
2022/08/31 08:31:06;;;;;;;7.60;4.80;;;;;;;27.70;51.83;97423.55;109638;1251;68728;-69
2022/08/31 08:33:35;;;;;;;5.30;4.80;;;;;;;27.98;51.21;97422.77;110016;1248;70453;-68
2022/08/31 08:36:06;;;;;;;5.50;5.00;;;;;;;27.69;49.89;97420.89;110030;1250;60579;-69
2022/08/31 08:38:42;;;;;;;5.10;4.20;;;;;;;27.72;50.51;97419.70;109915;1251;60588;-69
2022/08/31 08:41:17;;;;;;;6.60;5.00;;;;;;;27.87;50.07;97420.05;109715;1251;71630;-69
2022/08/31 08:43:49;;;;;;;9.60;5.40;;;;;;;28.27;50.32;97418.84;110031;1248;68223;-68
2022/08/31 08:46:47;;;;;;;5.70;5.10;;;;;;;27.94;50.02;97413.44;110113;1247;68097;-68
2022/08/31 08:49:39;;;;;;;5.20;4.10;;;;;;;27.94;50.40;97412.88;109683;1251;60517;-70
2022/08/31 08:52:21;;;;;;;4.90;4.10;;;;;;;28.76;49.59;97408.91;109794;1250;60555;-69
2022/08/31 08:54:53;;;;;;;4.70;4.20;;;;;;;29.52;47.56;97406.42;110088;1248;73098;-69
2022/08/31 08:57:32;;;;;;;4.60;4.20;;;;;;;29.60;47.03;97404.30;109612;1251;68758;-68
2022/08/31 09:00:13;;;;;;;5.30;3.60;;;;;;;29.94;46.47;97402.30;109650;1249;69114;-68
2022/08/31 09:03:02;;;;;;;4.80;4.30;;;;;;;30.28;44.92;97404.70;109795;1251;60580;-68
2022/08/31 09:05:58;;;;;;;5.10;3.60;;;;;;;30.51;44.38;97400.27;109554;1250;60507;-69
2022/08/31 09:09:06;;;;;;;4.10;3.70;;;;;;;30.63;44.28;97400.81;109673;1250;72799;-68
2022/08/31 09:11:59;;;;;;;4.70;4.20;;;;;;;30.42;43.82;97403.90;109590;1251;68668;-68
2022/08/31 09:14:57;;;;;;;6.10;5.00;;;;;;;30.21;43.78;97405.63;109664;1250;69468;-70
2022/08/31 09:17:51;;;;;;;5.30;4.20;;;;;;;29.36;44.69;97401.02;109700;1250;60561;-68
2022/08/31 09:20:27;;;;;;;5.60;5.10;;;;;;;29.18;45.99;97400.71;110026;1250;60428;-70
2022/08/31 09:22:57;;;;;;;5.30;4.60;;;;;;;28.62;46.68;97400.42;110454;1250;72155;-69
2022/08/31 09:25:33;;;;;;;6.50;5.90;;;;;;;28.57;47.35;97398.08;110376;1249;69821;-68
2022/08/31 09:28:13;;;;;;;6.70;5.50;;;;;;;28.68;46.90;97400.16;110040;1248;67675;-68
2022/08/31 09:30:42;;;;;;;5.80;5.20;;;;;;;28.90;46.52;97389.96;110086;1247;60476;-68
2022/08/31 09:33:21;;;;;;;5.40;4.90;;;;;;;29.10;46.61;97391.14;109811;1250;60502;-69
2022/08/31 09:35:57;;;;;;;5.10;4.70;;;;;;;29.33;45.91;97385.04;109934;1247;72557;-70
2022/08/31 09:38:39;;;;;;;5.60;5.10;;;;;;;29.68;45.60;97382.83;109703;1250;69256;-71
2022/08/31 09:41:29;;;;;;;5.10;4.50;;;;;;;29.98;44.90;97384.44;109828;1250;69402;-69
2022/08/31 09:44:32;;;;;;;5.70;5.10;;;;;;;29.82;44.36;97383.52;109738;1250;60550;-69
2022/08/31 09:47:40;;;;;;;5.30;4.70;;;;;;;30.52;42.66;97383.53;110059;1250;60507;-70
2022/08/31 09:50:09;;;;;;;5.10;4.40;;;;;;;30.88;42.83;97379.25;109974;1249;72373;-69
2022/08/31 09:55:28;;;;;;;5.50;4.60;;;;;;;31.10;41.34;97361.86;109965;1249;69340;-68
2022/08/31 09:58:13;;;;;;;6.30;5.20;;;;;;;31.15;41.10;97359.25;110003;1248;60531;-68
2022/08/31 10:00:45;;;;;;;4.60;4.10;;;;;;;30.51;41.66;97358.45;110022;1248;60493;-69
2022/08/31 10:03:27;;;;;;;5.60;4.50;;;;;;;30.09;42.45;97353.67;109677;1247;72790;-68
2022/08/31 10:05:56;;;;;;;6.20;5.60;;;;;;;29.91;43.08;97347.85;110033;1247;68598;-68
2022/08/31 10:08:41;;;;;;;5.70;4.90;;;;;;;29.32;44.04;97341.32;110101;1247;69438;-68
2022/08/31 10:11:16;;;;;;;6.40;4.90;;;;;;;29.25;45.25;97338.08;110047;1247;60554;-69
2022/08/31 10:13:56;;;;;;;5.90;5.40;;;;;;;29.66;44.75;97334.37;110056;1247;60443;-69
2022/08/31 10:16:41;;;;;;;6.70;4.20;;;;;;;29.78;43.62;97330.14;110076;1247;72389;-69
2022/08/31 10:19:42;;;;;;;5.90;4.50;;;;;;;30.16;43.09;97323.66;109983;1247;69420;-69
2022/08/31 10:22:24;;;;;;;5.00;4.50;;;;;;;30.67;41.89;97321.42;109427;1250;67625;-69
2022/08/31 10:25:20;;;;;;;5.30;3.90;;;;;;;31.04;40.27;97320.36;110860;1247;59602;-69
2022/08/31 10:28:17;;;;;;;4.20;3.80;;;;;;;31.33;39.81;97323.34;110076;1248;60492;-69
2022/08/31 10:30:52;;;;;;;3.80;3.50;;;;;;;31.34;39.46;97322.20;110022;1247;72458;-70
2022/08/31 10:35:01;;;;;;;4.90;4.20;;;;;;;31.92;39.06;97323.23;110053;1247;69385;-69
2022/08/31 10:36:17;;;;;;;4.70;4.30;;;;;;;32.33;37.95;97324.79;110051;1247;68665;-70
2022/08/31 10:38:49;;;;;;;4.00;3.60;;;;;;;32.20;37.47;97319.23;110062;1248;60551;-70
2022/08/31 10:41:29;;;;;;;4.20;3.80;;;;;;;31.63;38.69;97314.83;110060;1247;60444;-71
2022/08/31 10:44:43;;;;;;;5.30;4.20;;;;;;;31.91;38.00;97306.03;110038;1247;71593;-70
2022/08/31 10:47:18;;;;;;;3.70;3.30;;;;;;;31.73;38.22;97305.90;109652;1247;68702;-70
2022/08/31 10:50:03;;;;;;;3.70;3.30;;;;;;;32.53;37.66;97302.25;109748;1248;69615;-70
2022/08/31 10:52:58;;;;;;;4.40;3.90;;;;;;;32.70;36.40;97303.02;110000;1248;60557;-70
2022/08/31 10:55:50;;;;;;;;;;;;;;;33.27;35.84;97303.55;110057;1247;60438;-70
2022/08/31 10:58:35;;;;;;;5.00;3.90;;;;;;;33.38;35.53;97301.13;109652;1248;73153;-69
2022/08/31 11:01:19;;;;;;;3.70;3.40;;;;;;;33.21;35.05;97304.15;110063;1247;69844;-69
2022/08/31 11:04:03;;;;;;;3.90;3.50;;;;;;;32.89;35.47;97304.67;109748;1248;68662;-68
2022/08/31 11:06:46;;;;;;;5.60;3.70;;;;;;;32.08;36.09;97296.58;109714;1250;60543;-68
2022/08/31 11:09:25;;;;;;;4.30;3.90;;;;;;;31.27;38.68;97288.14;109699;1251;60600;-68
2022/08/31 11:12:08;;;;;;;4.70;4.20;;;;;;;31.44;38.14;97281.84;109782;1250;73181;-68
2022/08/31 11:15:22;;;;;;;4.20;3.50;;;;;;;31.95;36.81;97281.98;109672;1250;69695;-68
2022/08/31 11:18:15;;;;;;;4.90;3.60;;;;;;;31.95;36.56;97273.91;109756;1250;68744;-68
2022/08/31 11:21:26;;;;;;;4.70;4.20;;;;;;;32.25;36.93;97275.27;109716;1249;60564;-69
2022/08/31 11:24:27;;;;;;;4.90;4.40;;;;;;;32.61;35.65;97281.35;109991;1250;60569;-69
2022/08/31 11:27:19;;;;;;;5.40;4.10;;;;;;;32.36;35.40;97279.66;109750;1250;72902;-68
2022/08/31 11:30:01;;;;;;;4.20;3.80;;;;;;;32.12;35.34;97275.81;109787;1251;69063;-68
2022/08/31 11:32:59;;;;;;;3.70;3.40;;;;;;;32.25;36.23;97273.52;109670;1250;68864;-68
2022/08/31 11:35:56;;;;;;;4.40;3.60;;;;;;;33.22;34.77;97261.31;109653;1250;60440;-68
2022/08/31 11:38:46;;;;;;;3.90;3.40;;;;;;;32.73;34.41;97258.23;109659;1250;60490;-68
2022/08/31 11:41:38;;;;;;;3.90;3.40;;;;;;;32.05;35.69;97259.14;109771;1250;72134;-68
2022/08/31 11:44:09;;;;;;;5.00;3.60;;;;;;;31.82;36.29;97258.36;109785;1249;69825;-68
2022/08/31 11:46:41;;;;;;;4.80;4.40;;;;;;;31.81;36.16;97258.93;109865;1250;68717;-68
2022/08/31 11:49:36;;;;;;;5.00;4.00;;;;;;;31.40;36.32;97258.33;109666;1250;60569;-68
2022/08/31 11:52:34;;;;;;;4.40;4.00;;;;;;;30.98;37.45;97253.82;109827;1250;60517;-68
2022/08/31 11:55:12;;;;;;;4.60;4.20;;;;;;;30.88;37.91;97251.02;109742;1250;72923;-70
2022/08/31 11:58:08;;;;;;;5.10;3.90;;;;;;;30.95;37.11;97250.21;109683;1250;69387;-68
2022/08/31 12:00:46;;;;;;;4.00;3.60;;;;;;;30.48;36.17;97256.07;109725;1250;69532;-67
2022/08/31 12:03:37;;;;;;;3.60;3.30;;;;;;;30.73;36.68;97258.19;109711;1250;60864;-68
2022/08/31 12:06:10;;;;;;;4.40;4.00;;;;;;;31.09;36.66;97249.24;109719;1250;60488;-68
2022/08/31 12:09:15;;;;;;;4.90;4.40;;;;;;;30.97;37.43;97248.81;110030;1250;73242;-69
2022/08/31 12:12:02;;;;;;;4.60;4.20;;;;;;;30.40;38.10;97244.33;109636;1250;69853;-70
2022/08/31 12:14:55;;;;;;;4.80;4.40;;;;;;;29.27;39.80;97242.89;109639;1250;69530;-69
2022/08/31 12:18:03;;;;;;;4.50;3.70;;;;;;;29.03;40.38;97248.53;109592;1250;60581;-70